createdAt,value
2018-05-03T00:09:59.781Z,13.87
2018-05-03T00:12:31.653Z,13.82
2018-05-03T00:15:03.669Z,13.81
2018-05-03T00:17:32.855Z,13.85
2018-05-03T00:20:04.465Z,13.86
2018-05-03T00:37:50.505Z,13.82
2018-05-03T00:40:25.157Z,13.85
2018-05-03T00:42:53.664Z,13.86
2018-05-03T00:54:15.067Z,13.75
2018-05-03T00:56:44.037Z,13.76
2018-05-03T00:59:12.854Z,13.77
2018-05-03T01:04:44.433Z,13.74
2018-05-03T01:07:15.774Z,13.70
2018-05-03T01:18:36.976Z,13.59
2018-05-03T01:21:04.458Z,13.60
2018-05-03T01:23:32.698Z,13.62
2018-05-03T01:29:20.805Z,13.58
2018-05-03T01:32:01.331Z,13.60
2018-05-03T01:34:34.964Z,13.55
2018-05-03T01:37:02.627Z,13.56
2018-05-03T01:39:31.109Z,13.58
2018-05-03T01:41:58.590Z,13.47
2018-05-03T01:44:35.792Z,13.39
2018-05-03T01:47:04.428Z,13.34
2018-05-03T01:49:33.016Z,13.28
2018-05-03T01:52:02.064Z,13.29
2018-05-03T01:54:29.566Z,13.36
2018-05-03T02:00:07.495Z,13.36
2018-05-03T02:02:35.638Z,13.35
2018-05-03T02:05:03.907Z,13.27
2018-05-03T02:07:33.397Z,13.29
2018-05-03T02:10:00.870Z,13.31
2018-05-03T02:12:29.886Z,13.27
2018-05-03T02:14:57.414Z,13.22
2018-05-03T02:17:24.945Z,13.18
2018-05-03T02:19:52.434Z,13.12
2018-05-03T02:22:19.888Z,13.09
2018-05-03T02:24:47.344Z,13.08
2018-05-03T02:27:14.804Z,13.04
2018-05-03T02:29:42.490Z,12.98
2018-05-03T02:32:10.346Z,13.01
2018-05-03T02:34:37.885Z,13.02
2018-05-03T02:37:05.334Z,13.05
2018-05-03T02:39:33.679Z,13.03
2018-05-03T02:42:01.375Z,13.01
2018-05-03T02:44:28.811Z,13.00
2018-05-03T02:46:56.235Z,12.98
2018-05-03T02:49:24.009Z,12.92
2018-05-03T02:51:51.474Z,12.90
2018-05-03T02:54:18.907Z,12.89
2018-05-03T02:56:47.189Z,12.86
2018-05-03T02:59:26.533Z,12.79
2018-05-03T03:01:59.617Z,12.77
2018-05-03T03:04:44.439Z,12.76
2018-05-03T03:10:42.032Z,12.82
2018-05-03T03:16:45.751Z,12.92
2018-05-03T03:19:26.752Z,12.93
2018-05-03T03:22:11.499Z,12.91
2018-05-03T03:25:01.618Z,12.89
2018-05-03T03:27:46.865Z,12.87
2018-05-03T03:30:31.920Z,12.88
2018-05-03T03:33:11.159Z,12.87
2018-05-03T03:35:59.912Z,12.87
2018-05-03T03:38:39.045Z,12.93
2018-05-03T03:41:18.186Z,12.91
2018-05-03T03:44:02.436Z,12.93
2018-05-03T03:46:30.135Z,12.93
2018-05-03T03:48:57.563Z,12.94
2018-05-03T03:51:25.734Z,12.93
2018-05-03T03:53:53.200Z,12.93
2018-05-03T03:56:20.618Z,12.91
2018-05-03T03:58:48.064Z,12.91
2018-05-03T04:01:16.118Z,12.93
2018-05-03T04:03:45.110Z,12.95
2018-05-03T04:06:12.542Z,12.92
2018-05-03T04:08:42.158Z,12.93
2018-05-03T04:13:43.876Z,12.90
2018-05-03T04:16:11.400Z,12.95
2018-05-03T04:18:51.021Z,12.93
2018-05-03T04:21:30.150Z,12.88
2018-05-03T04:24:11.869Z,12.91
2018-05-03T04:26:40.108Z,12.96
2018-05-03T04:29:08.209Z,12.91
2018-05-03T04:31:36.303Z,12.93
2018-05-03T04:34:03.738Z,12.91
2018-05-03T04:36:31.178Z,12.90
2018-05-03T04:38:58.631Z,12.93
2018-05-03T04:41:26.134Z,12.94
2018-05-03T04:43:55.164Z,12.94
2018-05-03T04:46:24.088Z,12.93
2018-05-03T04:48:51.543Z,12.95
2018-05-03T04:51:18.989Z,12.93
2018-05-03T04:53:46.440Z,12.88
2018-05-03T04:56:15.910Z,12.91
2018-05-03T04:58:44.372Z,12.85
2018-05-03T05:01:12.107Z,12.77
2018-05-03T05:03:39.574Z,12.76
2018-05-03T05:06:07.255Z,12.76
2018-05-03T05:08:34.821Z,12.76
2018-05-03T05:11:02.294Z,12.73
2018-05-03T05:13:29.730Z,12.80
2018-05-03T05:15:57.458Z,12.82
2018-05-03T05:18:25.150Z,12.92
2018-05-03T05:20:53.900Z,12.92
2018-05-03T05:23:22.912Z,12.89
2018-05-03T05:25:52.893Z,12.96
2018-05-03T05:28:20.588Z,12.96
2018-05-03T05:30:48.125Z,12.94
2018-05-03T05:33:16.396Z,13.04
2018-05-03T05:35:43.898Z,13.10
2018-05-03T05:38:12.321Z,13.18
2018-05-03T05:40:39.733Z,13.26
2018-05-03T05:43:07.275Z,13.31
2018-05-03T05:45:34.786Z,13.27
2018-05-03T05:48:02.402Z,13.21
2018-05-03T05:50:29.908Z,13.17
2018-05-03T05:52:57.448Z,13.23
2018-05-03T05:55:25.710Z,13.23
2018-05-03T05:57:53.480Z,13.34
2018-05-03T06:00:20.922Z,13.38
2018-05-03T06:02:48.380Z,13.42
2018-05-03T06:05:15.902Z,13.46
2018-05-03T06:07:43.350Z,13.52
2018-05-03T06:10:10.811Z,13.59
2018-05-03T06:12:38.274Z,13.66
2018-05-03T06:15:05.748Z,13.82
2018-05-03T06:17:33.202Z,13.86
2018-05-03T06:20:00.746Z,13.95
2018-05-03T06:22:28.192Z,13.97
2018-05-03T06:24:55.648Z,14.01
2018-05-03T06:27:23.192Z,14.15
2018-05-03T06:29:50.676Z,14.35
2018-05-03T06:32:18.112Z,14.44
2018-05-03T06:34:46.266Z,14.54
2018-05-03T06:37:13.722Z,14.65
2018-05-03T06:39:41.220Z,14.71
2018-05-03T06:42:08.678Z,14.77
2018-05-03T06:44:36.541Z,14.79
2018-05-03T06:47:03.999Z,14.90
2018-05-03T06:49:31.439Z,14.98
2018-05-03T06:51:59.118Z,15.06
2018-05-03T06:54:38.362Z,15.11
2018-05-03T06:57:05.930Z,15.15
2018-05-03T06:59:33.548Z,15.20
2018-05-03T07:02:01.105Z,15.23
2018-05-03T07:04:33.472Z,15.28
2018-05-03T07:07:01.034Z,15.34
2018-05-03T07:09:28.525Z,15.45
2018-05-03T07:11:56.041Z,15.56
2018-05-03T07:14:28.497Z,15.65
2018-05-03T07:16:56.024Z,15.75
2018-05-03T07:19:23.522Z,15.77
2018-05-03T07:21:51.307Z,15.77
2018-05-03T07:27:12.035Z,15.72
2018-05-03T07:29:39.769Z,15.70
2018-05-03T07:32:07.810Z,15.73
2018-05-03T07:34:35.278Z,15.77
2018-05-03T07:37:03.454Z,15.87
2018-05-03T07:39:30.910Z,15.93
2018-05-03T07:41:58.620Z,15.98
2018-05-03T07:44:32.089Z,16.05
2018-05-03T07:47:02.084Z,16.11
2018-05-03T07:49:30.580Z,16.20
2018-05-03T07:51:58.942Z,16.26
2018-05-03T07:54:31.167Z,16.28
2018-05-03T07:56:59.504Z,16.33
2018-05-03T07:59:27.944Z,16.33
2018-05-03T08:01:55.400Z,16.33
2018-05-03T08:04:42.011Z,16.41
2018-05-03T08:07:09.710Z,16.42
2018-05-03T08:09:38.534Z,16.49
2018-05-03T08:12:06.024Z,16.49
2018-05-03T08:14:33.539Z,16.44
2018-05-03T08:17:01.093Z,16.48
2018-05-03T08:19:29.151Z,16.45
2018-05-03T08:21:59.034Z,16.47
2018-05-03T08:24:26.598Z,16.44
2018-05-03T08:26:54.120Z,16.45
2018-05-03T08:29:21.701Z,16.48
2018-05-03T08:31:49.268Z,16.50
2018-05-03T08:34:16.784Z,16.53
2018-05-03T08:36:44.228Z,16.58
2018-05-03T08:39:11.718Z,16.64
2018-05-03T08:41:39.168Z,16.72
2018-05-03T08:44:07.436Z,16.79
2018-05-03T08:46:34.933Z,16.89
2018-05-03T08:49:03.952Z,16.98
2018-05-03T08:51:32.175Z,17.06
2018-05-03T08:54:01.033Z,17.07
2018-05-03T08:56:28.526Z,17.06
2018-05-03T08:58:56.001Z,17.03
2018-05-03T09:01:23.736Z,17.09
2018-05-03T09:03:51.189Z,17.14
2018-05-03T09:06:18.965Z,17.20
2018-05-03T09:08:46.658Z,17.22
2018-05-03T09:11:14.686Z,17.22
2018-05-03T09:13:43.236Z,17.25
2018-05-03T09:16:10.619Z,17.26
2018-05-03T09:18:38.154Z,17.37
2018-05-03T09:21:05.674Z,17.45
2018-05-03T09:23:34.163Z,17.52
2018-05-03T09:28:54.638Z,17.52
2018-05-03T09:31:22.112Z,17.62
2018-05-03T09:33:49.550Z,17.67
2018-05-03T09:36:17.009Z,17.72
2018-05-03T09:38:44.524Z,17.77
2018-05-03T09:41:12.045Z,17.92
2018-05-03T09:43:39.517Z,17.99
2018-05-03T09:46:07.035Z,18.00
2018-05-03T09:48:34.740Z,17.99
2018-05-03T09:51:02.207Z,18.01
2018-05-03T09:53:29.665Z,18.04
2018-05-03T09:56:02.204Z,18.12
2018-05-03T09:58:30.026Z,18.09
2018-05-03T10:00:57.598Z,18.04
2018-05-03T10:03:25.683Z,18.02
2018-05-03T10:05:53.140Z,18.07
2018-05-03T10:08:20.658Z,18.08
2018-05-03T10:10:48.173Z,18.10
2018-05-03T10:13:15.642Z,18.15
2018-05-03T10:15:43.186Z,18.28
2018-05-03T10:18:10.873Z,18.49
2018-05-03T10:20:38.352Z,18.65
2018-05-03T10:23:05.812Z,18.75
2018-05-03T10:25:33.248Z,18.80
2018-05-03T10:28:00.790Z,18.79
2018-05-03T10:30:28.323Z,18.81
2018-05-03T10:32:55.791Z,18.79
2018-05-03T10:35:23.556Z,18.81
2018-05-03T10:37:51.140Z,18.80
2018-05-03T10:40:18.760Z,18.94
2018-05-03T10:42:46.231Z,19.06
2018-05-03T10:45:13.698Z,19.26
2018-05-03T10:47:41.233Z,19.36
2018-05-03T10:50:08.728Z,19.58
2018-05-03T10:52:36.252Z,19.86
2018-05-03T10:55:03.831Z,20.17
2018-05-03T10:57:31.363Z,20.24
2018-05-03T10:59:59.025Z,20.23
2018-05-03T11:02:26.511Z,20.45
2018-05-03T11:04:54.005Z,20.69
2018-05-03T11:07:21.467Z,20.76
2018-05-03T11:09:49.431Z,20.78
2018-05-03T11:12:16.889Z,21.03
2018-05-03T11:14:44.495Z,21.13
2018-05-03T11:17:12.263Z,21.34
2018-05-03T11:19:39.734Z,21.42
2018-05-03T11:22:07.271Z,21.66
2018-05-03T11:24:34.745Z,21.64
2018-05-03T11:27:02.930Z,21.67
2018-05-03T11:29:30.384Z,21.86
2018-05-03T11:31:57.864Z,22.04
2018-05-03T11:34:25.609Z,21.90
2018-05-03T11:36:53.116Z,21.73
2018-05-03T11:39:20.782Z,21.91
2018-05-03T11:41:48.836Z,22.20
2018-05-03T11:44:21.651Z,22.40
2018-05-03T11:46:49.176Z,22.47
2018-05-03T11:49:16.826Z,22.53
2018-05-03T11:51:44.318Z,22.79
2018-05-03T11:54:11.861Z,22.90
2018-05-03T11:56:39.390Z,23.03
2018-05-03T11:59:07.368Z,23.13
2018-05-03T12:01:34.849Z,23.28
2018-05-03T12:04:02.516Z,23.41
2018-05-03T12:06:30.137Z,23.54
2018-05-03T12:08:57.630Z,23.54
2018-05-03T12:11:26.375Z,23.28
2018-05-03T12:13:54.752Z,23.27
2018-05-03T12:16:22.284Z,23.26
2018-05-03T12:18:49.716Z,23.65
2018-05-03T12:21:17.230Z,23.77
2018-05-03T12:23:44.758Z,23.80
2018-05-03T12:26:12.306Z,23.93
2018-05-03T12:28:39.743Z,24.02
2018-05-03T12:31:08.842Z,24.12
2018-05-03T12:33:36.378Z,24.28
2018-05-03T12:36:24.046Z,24.41
2018-05-03T12:38:51.830Z,24.45
2018-05-03T12:41:19.282Z,24.48
2018-05-03T12:43:47.359Z,24.53
2018-05-03T12:46:14.827Z,24.64
2018-05-03T12:48:42.290Z,24.75
2018-05-03T12:51:09.759Z,24.83
2018-05-03T12:53:37.261Z,24.83
2018-05-03T12:56:04.725Z,24.82
2018-05-03T12:58:32.302Z,24.74
2018-05-03T13:00:59.882Z,24.56
2018-05-03T13:03:27.501Z,24.34
2018-05-03T13:05:55.039Z,24.12
2018-05-03T13:08:22.506Z,23.95
2018-05-03T13:10:49.957Z,23.85
2018-05-03T13:13:17.424Z,23.83
2018-05-03T13:15:44.883Z,23.85
2018-05-03T13:18:12.342Z,23.84
2018-05-03T13:20:39.798Z,23.90
2018-05-03T13:23:07.377Z,23.90
2018-05-03T13:25:34.843Z,23.85
2018-05-03T13:28:02.371Z,23.76
2018-05-03T13:30:29.832Z,23.83
2018-05-03T13:32:57.378Z,23.70
2018-05-03T13:35:25.060Z,23.58
2018-05-03T13:37:52.529Z,23.57
2018-05-03T13:40:19.983Z,23.52
2018-05-03T13:42:47.460Z,23.48
2018-05-03T13:45:14.962Z,23.41
2018-05-03T13:47:42.475Z,23.35
2018-05-03T13:50:09.932Z,23.31
2018-05-03T13:52:37.524Z,23.32
2018-05-03T13:55:05.025Z,23.32
2018-05-03T13:57:32.482Z,23.33
2018-05-03T14:00:00.012Z,23.16
2018-05-03T14:02:27.512Z,23.12
2018-05-03T14:04:55.007Z,23.08
2018-05-03T14:07:22.518Z,23.03
2018-05-03T14:09:49.930Z,22.89
2018-05-03T14:12:17.402Z,22.93
2018-05-03T14:14:44.937Z,23.09
2018-05-03T14:17:12.447Z,23.06
2018-05-03T14:19:39.919Z,23.05
2018-05-03T14:22:07.394Z,23.07
2018-05-03T14:24:34.862Z,23.02
2018-05-03T14:27:02.308Z,22.93
2018-05-03T14:29:29.758Z,22.93
2018-05-03T14:31:57.290Z,22.97
2018-05-03T14:34:24.769Z,22.98
2018-05-03T14:36:52.240Z,22.97
2018-05-03T14:39:19.677Z,22.87
2018-05-03T14:41:47.125Z,22.79
2018-05-03T14:44:19.554Z,22.79
2018-05-03T14:46:47.018Z,22.78
2018-05-03T14:49:16.096Z,22.67
2018-05-03T14:51:43.537Z,22.52
2018-05-03T14:54:11.013Z,22.42
2018-05-03T14:56:38.446Z,22.33
2018-05-03T14:59:05.890Z,22.14
2018-05-03T15:01:33.366Z,21.94
2018-05-03T15:04:00.806Z,21.78
2018-05-03T15:06:28.284Z,21.72
2018-05-03T15:08:55.724Z,21.68
2018-05-03T15:11:23.216Z,21.61
2018-05-03T15:13:50.744Z,21.49
2018-05-03T15:16:18.405Z,21.38
2018-05-03T15:18:45.704Z,21.26
2018-05-03T15:21:13.146Z,21.18
2018-05-03T15:23:40.602Z,21.10
2018-05-03T15:26:08.245Z,21.03
2018-05-03T15:28:36.433Z,20.95
2018-05-03T15:31:03.932Z,20.87
2018-05-03T15:33:31.438Z,20.90
2018-05-03T15:35:58.912Z,20.86
2018-05-03T15:38:26.376Z,20.75
2018-05-03T15:40:53.831Z,20.74
2018-05-03T15:43:21.435Z,20.76
2018-05-03T15:45:48.886Z,20.75
2018-05-03T15:48:16.410Z,20.72
2018-05-03T15:50:43.912Z,20.70
2018-05-03T15:53:11.413Z,20.68
2018-05-03T15:55:39.042Z,20.66
2018-05-03T15:58:06.512Z,20.65
2018-05-03T16:00:33.940Z,20.57
2018-05-03T16:03:01.385Z,20.58
2018-05-03T16:05:28.840Z,20.58
2018-05-03T16:07:56.317Z,20.54
2018-05-03T16:10:23.778Z,20.53
2018-05-03T16:12:51.231Z,20.53
2018-05-03T16:15:18.726Z,20.53
2018-05-03T16:17:46.251Z,20.46
2018-05-03T16:20:14.295Z,20.40
2018-05-03T16:22:41.743Z,20.40
2018-05-03T16:25:09.232Z,20.37
2018-05-03T16:27:36.737Z,20.34
2018-05-03T16:30:04.358Z,20.29
2018-05-03T16:32:31.952Z,20.24
2018-05-03T16:34:59.484Z,20.23
2018-05-03T16:37:26.963Z,20.20
2018-05-03T16:39:54.409Z,20.16
2018-05-03T16:42:21.973Z,20.13
2018-05-03T16:44:49.423Z,20.12
2018-05-03T16:47:16.935Z,20.11
2018-05-03T16:49:44.380Z,20.11
2018-05-03T16:52:11.907Z,20.06
2018-05-03T16:54:39.351Z,20.03
2018-05-03T16:57:06.822Z,20.03
2018-05-03T16:59:34.287Z,19.99
2018-05-03T17:02:01.732Z,19.95
2018-05-03T17:04:29.233Z,19.93
2018-05-03T17:06:56.711Z,19.93
2018-05-03T17:09:24.157Z,19.96
2018-05-03T17:11:51.722Z,19.91
2018-05-03T17:14:19.241Z,19.91
2018-05-03T17:16:46.735Z,19.88
2018-05-03T17:19:14.249Z,19.89
2018-05-03T17:21:41.706Z,19.85
2018-05-03T17:24:09.147Z,19.77
2018-05-03T17:26:36.629Z,19.74
2018-05-03T17:29:04.151Z,19.67
2018-05-03T17:31:31.738Z,19.62
2018-05-03T17:33:59.191Z,19.64
2018-05-03T17:36:26.641Z,19.60
2018-05-03T17:38:54.133Z,19.60
2018-05-03T17:41:21.672Z,19.53
2018-05-03T17:43:49.129Z,19.49
2018-05-03T17:46:16.633Z,19.46
2018-05-03T17:48:44.094Z,19.45
2018-05-03T17:51:11.672Z,19.41
2018-05-03T17:53:39.152Z,19.36
2018-05-03T17:56:06.643Z,19.32
2018-05-03T17:58:34.180Z,19.29
2018-05-03T18:01:01.716Z,19.21
2018-05-03T18:03:29.187Z,19.18
2018-05-03T18:05:56.695Z,19.13
2018-05-03T18:08:24.156Z,19.08
2018-05-03T18:10:51.720Z,19.07
2018-05-03T18:13:19.507Z,19.05
2018-05-03T18:15:47.076Z,19.03
2018-05-03T18:18:14.589Z,18.97
2018-05-03T18:20:42.061Z,18.95
2018-05-03T18:23:09.520Z,18.90
2018-05-03T18:25:37.410Z,18.90
2018-05-03T18:28:06.639Z,18.84
2018-05-03T18:30:34.096Z,18.79
2018-05-03T18:33:01.572Z,18.75
2018-05-03T18:35:29.081Z,18.71
2018-05-03T18:37:56.671Z,18.69
2018-05-03T18:40:24.145Z,18.67
2018-05-03T18:42:51.735Z,18.61
2018-05-03T18:45:19.227Z,18.57
2018-05-03T18:47:46.992Z,18.53
2018-05-03T18:50:14.635Z,18.48
2018-05-03T18:52:42.852Z,18.45
2018-05-03T18:55:29.587Z,18.38
2018-05-03T18:57:58.702Z,18.37
2018-05-03T19:00:26.207Z,18.33
2018-05-03T19:02:53.651Z,18.29
2018-05-03T19:05:35.382Z,18.20
2018-05-03T19:08:02.901Z,18.15
2018-05-03T19:10:31.337Z,18.16
2018-05-03T19:12:59.293Z,18.15
2018-05-03T19:15:26.756Z,18.15
2018-05-03T19:17:54.252Z,18.13
2018-05-03T19:20:22.040Z,18.11
2018-05-03T19:22:49.531Z,18.13
2018-05-03T19:25:17.078Z,18.15
2018-05-03T19:27:44.555Z,18.13
2018-05-03T19:30:12.104Z,18.11
2018-05-03T19:32:40.994Z,18.05
2018-05-03T19:35:09.425Z,18.05
2018-05-03T19:37:36.897Z,18.04
2018-05-03T19:40:04.400Z,18.03
2018-05-03T19:42:31.859Z,17.94
2018-05-03T19:45:00.111Z,17.90
2018-05-03T19:47:27.564Z,17.92
2018-05-03T19:49:55.061Z,17.87
2018-05-03T19:52:22.501Z,17.86
2018-05-03T19:55:09.202Z,17.84
2018-05-03T19:57:36.749Z,17.84
2018-05-03T20:00:04.820Z,17.84
2018-05-03T20:02:32.303Z,17.77
2018-05-03T20:04:59.835Z,17.72
2018-05-03T20:07:27.328Z,17.69
2018-05-03T20:09:54.851Z,17.71
2018-05-03T20:12:22.527Z,17.63
2018-05-03T20:14:50.041Z,17.59
2018-05-03T20:17:18.313Z,17.62
2018-05-03T20:19:45.909Z,17.64
2018-05-03T20:22:13.660Z,17.55
2018-05-03T20:24:41.129Z,17.50
2018-05-03T20:27:08.594Z,17.44
2018-05-03T20:29:36.350Z,17.37
2018-05-03T20:32:03.811Z,17.44
2018-05-03T20:34:31.303Z,17.40
2018-05-03T20:36:59.451Z,17.35
2018-05-03T20:39:27.073Z,17.27
2018-05-03T20:41:54.655Z,17.28
2018-05-03T20:44:22.935Z,17.27
2018-05-03T20:46:50.406Z,17.26
2018-05-03T20:49:17.924Z,17.25
2018-05-03T20:51:45.549Z,17.18
2018-05-03T20:54:27.344Z,17.13
2018-05-03T20:56:54.867Z,17.12
2018-05-03T20:59:22.318Z,17.02
2018-05-03T21:01:49.829Z,17.03
2018-05-03T21:04:17.339Z,16.97
2018-05-03T21:06:44.800Z,16.93
2018-05-03T21:09:12.249Z,17.00
2018-05-03T21:11:40.023Z,16.93
2018-05-03T21:14:08.488Z,16.92
2018-05-03T21:16:37.675Z,16.87
2018-05-03T21:19:05.165Z,16.86
2018-05-03T21:21:33.356Z,16.88
2018-05-03T21:24:02.866Z,16.84
2018-05-03T21:26:30.322Z,16.85
2018-05-03T21:28:57.946Z,16.77
2018-05-03T21:31:25.408Z,16.73
2018-05-03T21:33:53.069Z,16.69
2018-05-03T21:36:20.673Z,16.64
2018-05-03T21:38:48.495Z,16.68
2018-05-03T21:41:16.054Z,16.63
2018-05-03T21:43:43.708Z,16.63
2018-05-03T21:46:11.568Z,16.53
2018-05-03T21:48:39.191Z,16.44
2018-05-03T21:51:06.830Z,16.45
2018-05-03T21:53:34.644Z,16.47
2018-05-03T21:56:02.939Z,16.48
2018-05-03T21:58:30.476Z,16.48
2018-05-03T22:00:58.155Z,16.48
2018-05-03T22:03:25.846Z,16.41
2018-05-03T22:05:53.692Z,16.38
2018-05-03T22:08:21.691Z,16.35
2018-05-03T22:10:49.320Z,16.30
2018-05-03T22:13:17.430Z,16.28
2018-05-03T22:15:45.392Z,16.25
2018-05-03T22:18:12.919Z,16.25
2018-05-03T22:20:40.780Z,16.21
2018-05-03T22:23:08.510Z,16.18
2018-05-03T22:25:36.454Z,16.16
2018-05-03T22:28:04.901Z,15.97
2018-05-03T22:30:33.168Z,15.97
2018-05-03T22:33:00.668Z,16.00
2018-05-03T22:35:37.946Z,15.97
2018-05-03T22:38:05.615Z,15.85
2018-05-03T22:40:33.157Z,15.89
2018-05-03T22:43:00.882Z,15.92
2018-05-03T22:45:29.596Z,15.95
2018-05-03T22:47:57.244Z,15.87
2018-05-03T22:50:24.708Z,15.79
2018-05-03T22:52:52.283Z,15.83
2018-05-03T22:55:20.290Z,15.85
2018-05-03T22:57:47.973Z,15.85
2018-05-03T23:00:15.476Z,15.83
2018-05-03T23:02:43.082Z,15.78
2018-05-03T23:05:10.551Z,15.77
2018-05-03T23:07:38.068Z,15.66
2018-05-03T23:10:05.549Z,15.70
2018-05-03T23:12:33.713Z,15.71
2018-05-03T23:15:06.326Z,15.74
2018-05-03T23:17:34.018Z,15.66
2018-05-03T23:20:02.690Z,15.68
2018-05-03T23:38:13.448Z,15.42
2018-05-03T23:40:41.348Z,15.32
2018-05-03T23:43:09.048Z,15.27
2018-05-03T23:45:37.472Z,15.26
2018-05-03T23:48:05.961Z,15.33
2018-05-03T23:50:33.421Z,15.29
2018-05-03T23:53:02.622Z,15.32
2018-05-03T23:58:23.329Z,15.29
